x

Buoy F01 - West Penobscot Bay (44033) Wave Buoy

1:04pm - Sun 1st Feb 2015 All times are EST. -5 hours from GMT.

  • Sig Wave height 1.6ft
  • Peak Period 3s
  • Wind
    25mph, 31mph gusts
  • Sea Temp 37°f
  • 空気 Temp 20°f
  • Sea Pressure 1014.7mb
  • Buoy F01 - West Penobscot Bay
  • Buoy F01 - West Penobscot Bay

More Historic Weather Station data

Upgrade to MSW Pro to gain access to the past 30 days of data for over 8000 Wavebouys and Weather Stations around the globe.

Join Pro

Comparision Forecast

View Surf forecast
   
Sun 02/01 1:04pm 1.6ft 3s 25 31 mph 1014.7mb 37f 20f
12:04pm 1.3ft 2s 20 25 mph 1015.1mb 37f 18f
11:04am 1.3ft 2s 18 25 mph 1015.6mb 37f 16f
10:04am 1ft  -  16 20 mph 1015.8mb 37f 15f
9:04am 1ft 2s 16 20 mph 1015.9mb 37f 14f
8:04am 1.3ft 2s 20 27 mph 1015.7mb 36f 13f
7:04am 1.3ft 3s 18 25 mph 1015.3mb 36f 12f
6:04am 1ft 2s 18 22 mph 1014.2mb 36f 10f
5:04am 1.3ft 2s 22 27 mph 1013.5mb 36f 11f
4:04am 1.6ft 2s 22 25 mph 1012.9mb 37f 11f
3:04am 1.3ft 2s 18 22 mph 1011.9mb 37f 11f
2:04am 1.6ft 3s 16 20 mph 1011.6mb 37f 11f
1:04am 1.6ft 3s 13 16 mph 1011.3mb 37f 10f
12:04am 2ft 4s 25 31 mph 1010.4mb 37f 11f
Sat 01/31 11:04pm 2.5ft 4s 13 22 mph 1010.7mb 37f 10f
10:04pm 4.5ft 4s 29 38 mph 1008.4mb 37f 13f
9:04pm 3.5ft 4s 27 36 mph 1008.9mb 37f 13f
8:04pm 4ft 5s 29 36 mph 1007.4mb 37f 14f
7:04pm 4.5ft 5s 34 38 mph 1007.3mb 37f 16f
5:04pm 3ft 5s 27 34 mph 1005.5mb 37f 18f
4:04pm 3.5ft 4s 29 34 mph 1005mb 37f 18f
3:04pm 3.5ft 4s 27 34 mph 1003.4mb 37f 18f
2:04pm 3.5ft 4s 25 31 mph 1002.9mb 37f 18f
1:04pm 3.5ft 4s 27 31 mph 1002.6mb 37f 18f
12:04pm 4.5ft 4s 29 36 mph 1002.1mb 37f 18f
11:04am 4.5ft 4s 29 36 mph 1002mb 37f 20f
10:04am 4.5ft 5s 31 38 mph 1002mb 37f 19f
9:04am 5ft 5s 34 40 mph 1001.6mb 37f 20f
8:04am 4.5ft 5s 34 38 mph 1001.4mb 37f 20f
7:04am 5ft 5s 31 40 mph 1001.4mb 37f 21f
6:04am 4.5ft 5s 31 40 mph 1000.3mb 37f 23f
5:04am 4.5ft 5s 31 40 mph 1000.2mb 38f 22f
4:04am 4.5ft 4s 29 38 mph 1000.3mb 37f 24f
3:04am 4.5ft 5s 31 38 mph 1000.3mb 37f 25f
2:04am 4ft 4s 31 38 mph 1000.9mb 37f 27f
1:04am 4ft 6s 27 34 mph 1001.1mb 37f 29f
12:04am 3.5ft 6s 27 31 mph 1000.6mb 37f 32f
Fri 01/30 11:04pm 3ft 6s 22 27 mph 1001mb 37f 34f
10:04pm 3ft 6s 20 25 mph 1001.3mb 37f 33f
9:04pm 3ft 5s 18 20 mph 1001.6mb 37f 35f
8:04pm 3ft 5s 16 18 mph 1002.2mb 37f 35f
7:04pm 3.5ft 6s 13 16 mph 1002.6mb 37f 36f
6:04pm 4ft 5s 9 11 mph 1003.4mb 37f 38f
5:04pm 4.5ft 5s 11 16 mph 1003.6mb 37f 38f
4:04pm 4ft 5s 13 16 mph 1004.4mb 38f 37f
3:04pm 4.5ft 5s  -  mph - 37f -
2:04pm 4.5ft 5s 18 20 mph 1005.5mb 37f 37f
1:04pm 3.5ft 5s 18 22 mph 1006mb 37f 37f
12:04pm 4ft 5s 18 22 mph 1006.9mb 37f 37f
11:04am 3.5ft 5s 16 20 mph 1008mb 37f 36f
10:04am 3ft 5s  -  mph - 37f -
8:04am 2.5ft 4s 11 16 mph 1009.8mb 37f 31f
7:04am 2ft 4s 13 18 mph 1010.8mb 37f 31f
6:04am 1.6ft 4s 11 16 mph 1011.5mb 37f 29f
5:04am 1.6ft 11s 11 16 mph 1012mb 37f 28f
4:04am 1.6ft 11s 7
mph
1013.5mb 37f 28f
3:04am 1.3ft 11s 7 9 mph 1014.6mb 37f 28f
2:04am 1ft 11s 7 9 mph 1015.9mb 37f 27f
1:04am 1.3ft 11s 4
mph
1016.7mb 37f 27f
12:04am 1.3ft 11s 4 7 mph 1017.1mb 37f 27f
Thu 01/29 9:04pm 1ft 11s 4 7 mph 1019.4mb 38f 27f
8:04pm 1.3ft 11s 7 9 mph 1019.9mb 37f 28f
7:04pm 1ft 11s 4 7 mph 1020.5mb 38f 29f
6:04pm 1ft 11s 7 9 mph 1020.7mb 37f 29f
5:04pm 1ft 11s 2 4 mph 1020.8mb 38f 29f
4:04pm 1ft 11s  -  2 mph 1021.1mb 38f 29f
3:04pm 1ft 11s 4
mph
1021.9mb 38f 28f
2:04pm 1ft 11s 4 7 mph 1022.5mb 38f 28f
1:04pm 1ft 11s 7 9 mph 1023mb 38f 27f
12:04pm 1ft 11s 7 9 mph 1024mb 38f 26f
11:04am 1.3ft 11s 7 9 mph 1025.1mb 38f 25f
10:04am 1.6ft 11s 7 9 mph 1025.7mb 38f 24f
9:04am  -   -  11 16 mph 1025.1mb 38f 22f
8:04am 2ft 11s 11 13 mph 1024.8mb 37f 19f
7:04am 1.3ft 11s 13 16 mph 1024mb 37f 18f
6:04am 1.3ft 11s 9 11 mph 1023.8mb 37f 18f
5:04am 1.3ft 11s 9 11 mph 1023mb 36f 17f
4:04am 1.6ft 11s 9 11 mph 1023.3mb 36f 18f
3:04am 1.6ft 11s 9 13 mph 1023.5mb 37f 18f
2:04am 1.6ft 11s 11 13 mph 1023mb 37f 19f
1:04am 1.6ft 3s 9 11 mph 1022.2mb 37f 20f
12:04am 2.5ft 11s 13 16 mph 1021.1mb 37f 21f
Wed 01/28 11:04pm 2.5ft 11s 16 20 mph 1020.4mb 38f 21f
10:04pm 2.5ft 3s 18 20 mph 1019.4mb 38f 22f
9:04pm 2.5ft 3s 22 27 mph 1018.5mb 38f 22f